Aviation Digital Data Service (ADDS)

Output produced by METARs form (1020 UTC 07 December 2022)
found at http://www.aviationweather.gov/metar/data/
 
KGWO 070953Z AUTO 21009KT 10SM BKN045 BKN065 22/18 A3014 RMK AO2 SLP203 T02220183
KGWO 070853Z AUTO 21009KT 10SM FEW046 OVC065 22/18 A3013 RMK AO2 SLP200 T02220183 53014
KGWO 070753Z AUTO 21009KT 10SM BKN043 OVC060 23/18 A3011 RMK AO2 SLP196 T02280183
KGWO 070653Z AUTO 20007KT 10SM SCT043 OVC060 22/18 A3010 RMK AO2 SLP190 T02220178
KGWO 070553Z AUTO 19008KT 10SM OVC055 22/18 A3009 RMK AO2 SLP186 T02220178 10228 20211 402610206 51010
KGWO 070453Z AUTO 19009KT 10SM OVC060 22/18 A3008 RMK AO2 SLP184 T02220178
KGWO 070353Z AUTO 20008KT 10SM OVC060 22/18 A3007 RMK AO2 SLP179 T02220178
KGWO 070253Z AUTO 20006KT 10SM FEW048 OVC060 22/18 A3006 RMK AO2 SLP176 T02220178 51012
KGWO 070153Z AUTO 16003KT 10SM OVC055 22/18 A3005 RMK AO2 SLP173 T02220178
KGWO 070053Z AUTO 18003KT 10SM BKN055 22/17 A3004 RMK AO2 SLP170 T02170172
KGWO 062353Z AUTO 20004KT 10SM FEW055 22/17 A3002 RMK AO2 SLP165 T02170172 10261 20217 51012
KGWO 062253Z AUTO 19007KT 10SM BKN055 23/18 A3001 RMK AO2 SLP160 T02330178
KGWO 062153Z AUTO 21010KT 10SM CLR 25/18 A3001 RMK AO2 SLP159 T02500178
KGWO 062053Z AUTO 21011KT 10SM SCT055 25/18 A2999 RMK AO2 SLP153 T02500178 56008
KGWO 061953Z AUTO 22010KT 10SM SCT043 OVC050 25/17 A3000 RMK AO2 SLP156 T02500172
KGWO 061853Z AUTO 21013G21KT 10SM CLR 26/18 A3000 RMK AO2 SLP157 T02560178
KGWO 061753Z AUTO 22012G18KT 10SM FEW029 BKN046 BKN055 24/18 A3001 RMK AO2 PK WND 21028/1728 SLP160 T02440183 10250 20206 58003
KGWO 061732Z AUTO 21017G28KT 10SM SCT023 SCT032 BKN050 24/19 A3002 RMK AO2 PK WND 21028/1728 T02440189
KGWO 061725Z AUTO 22013KT 10SM FEW021 BKN026 OVC055 24/19 A3002 RMK AO2 T02390189
KGWO 061653Z AUTO 21012KT 10SM FEW020 SCT035 OVC048 24/19 A3003 RMK AO2 SLP166 T02390189
KGWO 061553Z AUTO 20010KT 10SM SCT017 BKN031 OVC050 23/19 A3003 RMK AO2 SLP168 T02330194
KGWO 061453Z AUTO 20009KT 10SM BKN016 22/19 A3002 RMK AO2 SLP164 T02220194 51017
KGWO 061353Z AUTO 19008KT 10SM OVC019 21/19 A3000 RMK AO2 SLP158 T02110194
KGWO 061253Z AUTO 19009KT 10SM BKN021 BKN030 21/19 A2999 RMK AO2 SLP153 T02110189
KGWO 061153Z AUTO 18008KT 10SM BKN016 OVC033 21/19 A2997 RMK AO2 SLP147 70005 T02060189 10217 20200 53007
KGWO 061133Z AUTO 18008KT 10SM BKN016 BKN030 21/19 A2996 RMK AO2 T02060189
KGWO 061125Z AUTO 19008KT 10SM SCT016 BKN031 21/19 A2996 RMK AO2 T02060189
KGWO 061100Z AUTO 20012KT 10SM BKN017 21/19 A2996 RMK AO2 T02110189
KGWO 061053Z AUTO 20010KT 10SM SCT017 BKN065 21/19 A2995 RMK AO2 SLP142 T02110189
KGWO 060953Z AUTO 20011KT 10SM FEW018 BKN065 21/19 A2995 RMK AO2 SLP141 T02110189
KGWO 060853Z AUTO 20011KT 10SM FEW023 BKN045 21/19 A2995 RMK AO2 SLP140 T02110189 53007
KGWO 060830Z AUTO 20011KT 10SM FEW019 BKN025 OVC070 21/19 A2995 RMK AO2 T02110189
KGWO 060653Z AUTO 20012KT 10SM OVC060 21/19 A2993 RMK AO2 SLP133 T02110189
KGWO 060553Z AUTO 19010KT 10SM BKN060 20/18 A2993 RMK AO2 SLP132 60000 T02000183 10206 20189 402060094 53009
KGWO 060453Z AUTO 19012KT 10SM CLR 20/18 A2992 RMK AO2 SLP129 T02000183
KGWO 060353Z AUTO 19009KT 10SM CLR 20/18 A2991 RMK AO2 SLP125 T02000178
KGWO 060253Z AUTO 20010KT 10SM CLR 20/18 A2990 RMK AO2 SLP123 60000 T02000183 53001
KGWO 060153Z AUTO 19010KT 10SM CLR 20/18 A2990 RMK AO2 SLP122 T02000183
KGWO 060053Z AUTO 19009KT 10SM CLR 19/18 A2989 RMK AO2 RAE2355 SLP122 P0000 T01940178
KGWO 052353Z AUTO 20006KT 10SM -RA FEW050 FEW100 19/18 A2990 RMK AO2 RAB51 SLP123 P0000 60003 T01890178 10194 20156 55001
KGWO 052253Z AUTO 19006KT 6SM BR BKN075 19/18 A2989 RMK AO2 SLP121 T01890178
KGWO 052244Z AUTO 18006KT 7SM FEW016 SCT021 OVC075 19/18 A2989 RMK AO2 T01890178
KGWO 052153Z AUTO 20006KT 6SM BR OVC016 19/18 A2990 RMK AO2 RAB2055E40 SLP123 P0002 T01940183
KGWO 052130Z AUTO 21006KT 5SM -RA BR OVC018 19/18 A2990 RMK AO2 RAB2055 P0002 T01940183
KGWO 052122Z AUTO 21007KT 2 1/2SM -RA BR BKN016 OVC025 19/18 A2990 RMK AO2 RAB2055 P0002 T01940183
KGWO 052103Z AUTO 21007KT 6SM -RA BR OVC016 19/18 A2990 RMK AO2 RAB2055 P0000 T01940183
KGWO 052053Z AUTO 20008KT 8SM OVC014 19/18 A2990 RMK AO2 RAB41E52 SLP123 P0001 60001 T01940183 56007
KGWO 052000Z AUTO 20011KT 6SM BR BKN011 OVC018 19/18 A2990 RMK AO2 T01890178
KGWO 051953Z AUTO 21010KT 5SM BR BKN009 OVC014 19/18 A2990 RMK AO2 RAB26E48 SLP124 P0000 T01890178
KGWO 051853Z AUTO 20006KT 3SM BR OVC005 17/17 A2992 RMK AO2 RAE1755 SLP129 P0000 T01720167
KGWO 051851Z AUTO 21006KT 3SM BR OVC005 17/17 A2992 RMK AO2 RAE1755 P0000
KGWO 051839Z AUTO 22005KT 2 1/2SM BR OVC004 17/16 A2993 RMK AO2 RAE1755 P0000 T01670161
KGWO 051827Z AUTO 21004KT 1 1/4SM BR OVC003 17/16 A2993 RMK AO2 RAE1755 P0000 T01670156
KGWO 051804Z AUTO 21005KT 1/2SM FG VV002 16/15 A2995 RMK AO2 RAE1755 P0000 T01560150
KGWO 051753Z AUTO 21005KT 1/4SM -RA FG VV002 16/15 A2996 RMK AO2 RAB45 SLP143 P0000 60002 T01560150 10156 20106 58016
KGWO 051653Z AUTO 22006KT 1/4SM FG VV002 15/14 A2998 RMK AO2 RAB24E36 SLP153 P0001 T01500144
KGWO 051618Z AUTO 22005KT 1/2SM FG VV002 14/14 A3000 RMK AO2 T01440139
KGWO 051553Z AUTO 20005KT 1/4SM FG VV002 14/13 A3000 RMK AO2 LTG DSNT W RAE05B24E48 SLP159 P0001 T01390133
KGWO 051532Z AUTO 20003KT 1/2SM -RA FG VV003 14/13 A3001 RMK AO2 RAE05B24 P0001 T01390128
KGWO 051521Z AUTO 00000KT 1/4SM FG VV003 13/12 A3001 RMK AO2 RAE05 P0001 T01330122
KGWO 051507Z AUTO 00000KT 1/2SM FG VV003 13/12 A3000 RMK AO2 RAE05 P0001 T01330122
KGWO 051453Z AUTO 00000KT 1/4SM -RA FG VV003 13/12 A3000 RMK AO2 RAB51 SLP159 P0000 60000 T01280122 56000
KGWO 051449Z AUTO 00000KT 1/4SM FG VV003 13/12 A3000 RMK AO2
KGWO 051353Z AUTO 00000KT 3/4SM BR OVC002 12/11 A3000 RMK AO2 RAB1259E17 SLP157 P0000 T01220111
KGWO 051328Z AUTO 00000KT 3/4SM BR OVC002 12/11 A3000 RMK AO2 RAB1259E17 P0000 T01170106
KGWO 051253Z AUTO 00000KT 1 3/4SM BR OVC003 11/11 A3000 RMK AO2 SLP160 T01110106
KGWO 051246Z AUTO 00000KT 1 3/4SM BR OVC003 11/10 A3000 RMK AO2 T01110100
KGWO 051225Z AUTO 10004KT 6SM BR OVC003 11/10 A3000 RMK AO2 T01110100
KGWO 051153Z AUTO 00000KT 8SM OVC006 11/09 A3000 RMK AO2 SLP158 60003 70010 T01060094 10111 20094 56016
KGWO 051053Z AUTO 02003KT 9SM OVC007 11/09 A3001 RMK AO2 RAB31E43 SLP160 P0001 T01060094
KGWO 051003Z AUTO 00000KT 5SM BR OVC009 11/09 A3002 RMK AO2 P0001 T01110094
KGWO 050953Z AUTO 17003KT 5SM BR OVC010 11/09 A3002 RMK AO2 RAB33E43 SLP164 P0000 T01110094
KGWO 050853Z AUTO 16004KT 10SM OVC012 10/09 A3005 RMK AO2 RAE12B38E47 SLP174 P0001 60002 T01000089 56017
KGWO 050805Z AUTO 00000KT 4SM -RA BR OVC014 10/08 A3006 RMK AO2 P0001 T01000083
KGWO 050753Z AUTO 00000KT 4SM -RA BR OVC015 10/08 A3007 RMK AO2 RAB28 SLP181 P0001 T01000083
KGWO 050653Z AUTO 13003KT 10SM OVC018 10/08 A3007 RMK AO2 SLP181 T01000078
KGWO 050553Z AUTO 14004KT 10SM OVC021 09/08 A3010 RMK AO2 SLP191 60007 T00940078 10094 20089 401220061 58019
KGWO 050504Z AUTO 07004KT 10SM FEW007 OVC017 09/08 A3012 RMK AO2 T00940078
KGWO 050453Z AUTO 05004KT 10SM OVC018 09/08 A3013 RMK AO2 SLP201 T00940078
KGWO 050353Z AUTO 05004KT 10SM OVC020 09/07 A3014 RMK AO2 RAE0257 SLP206 P0000 T00940072
KGWO 050253Z AUTO 06005KT 10SM -RA OVC023 09/07 A3015 RMK AO2 RAB0154 SLP209 P0004 60007 T00890072 58015
KGWO 050232Z AUTO 04006KT 10SM -RA BKN022 OVC031 09/07 A3015 RMK AO2 RAB0154 P0002 T00890072
KGWO 050153Z AUTO 04005KT 10SM BKN034 OVC070 09/07 A3016 RMK AO2 RAE06B24E47 SLP212 P0002 T00940067
KGWO 050053Z AUTO 00000KT 9SM -RA OVC038 09/07 A3018 RMK AO2 RAE09B32 SLP221 P0001 T00940067
KGWO 042353Z AUTO 36004KT 10SM -RA OVC036 09/06 A3019 RMK AO2 RAB33 SLP224 P0000 60000 T00940056 10122 20094 50007
KGWO 042253Z AUTO 01006KT 10SM BKN034 OVC043 11/04 A3020 RMK AO2 SLP226 T01060044
KGWO 042153Z AUTO 35007KT 10SM OVC040 11/05 A3020 RMK AO2 SLP226 T01110050
KGWO 042053Z AUTO 00000KT 10SM OVC044 12/04 A3017 RMK AO2 SLP217 T01170044 56039
KGWO 041953Z AUTO 00000KT 10SM FEW070 11/04 A3019 RMK AO2 SLP224 T01060039
KGWO 041853Z AUTO VRB04KT 10SM FEW047 OVC055 11/04 A3026 RMK AO2 SLP246 T01060039
KGWO 041753Z AUTO 29004KT 10SM OVC050 10/03 A3029 RMK AO2 SLP255 T01000033 10100 20061 58017
KGWO 041653Z AUTO 00000KT 10SM SCT043 OVC050 10/03 A3031 RMK AO2 SLP265 T01000028
KGWO 041553Z AUTO 04005KT 10SM OVC044 09/02 A3033 RMK AO2 SLP269 T00890022
KGWO 041536Z AUTO 03005KT 10SM SCT015 OVC042 08/02 A3033 RMK AO2 T00780022
KGWO 041453Z AUTO 02005KT 10SM BKN015 OVC042 07/02 A3034 RMK AO2 SLP273 T00670017 52008
KGWO 041403Z AUTO 35005KT 10SM BKN015 OVC040 06/01 A3034 RMK AO2 T00610011
KGWO 041353Z AUTO 36006KT 10SM SCT016 OVC040 07/01 A3033 RMK AO2 SLP272 T00670011
KGWO 041253Z AUTO 08003KT 10SM OVC042 07/01 A3031 RMK AO2 SLP265 T00670011
KGWO 041153Z AUTO 04007KT 10SM SCT014 OVC044 07/02 A3031 RMK AO2 SLP264 70002 T00670017 10089 20061 55006
KGWO 041118Z AUTO 01004KT 10SM SCT015 06/01 A3032 RMK AO2 T00610011
KGWO 041053Z AUTO 03006KT 10SM OVC016 07/01 A3031 RMK AO2 SLP262 T00720011
KGWO 070520Z 0706/0806 19006KT P6SM OVC050 
     FM070900 19006KT P6SM VCSH OVC050 
     FM071400 20006KT P6SM OVC018 
     TEMPO 0714/0716 6SM -SHRA BR OVC015 
     FM071700 22008KT P6SM BKN022 
     FM072100 21007KT P6SM BKN060